Time;durP1;ratioP1;P1;durP2;ratioP2;P2;SDS_P1;SDS_P2;PMS_P1;PMS_P2;Temp;Humidity;BMP_temperature;BMP_pressure;BME280_temperature;BME280_humidity;BME280_pressure;Samples;Min_cycle;Max_cycle;Signal;HPM_P1;HPM_P2
2023/03/15 00:01:02;;;;;;;14.82;2.03;;;1.90;99.90;;;;;;5041299;28;20052;-68
2023/03/15 00:03:28;;;;;;;8.02;1.60;;;1.90;99.90;;;;;;5039472;28;20045;-68
2023/03/15 00:05:54;;;;;;;6.78;2.30;;;2.00;99.90;;;;;;5039814;28;20072;-67
2023/03/15 00:08:20;;;;;;;5.13;1.50;;;2.00;99.90;;;;;;5042599;28;20045;-68
2023/03/15 00:10:47;;;;;;;6.63;1.38;;;2.10;99.90;;;;;;5045486;28;20044;-68
2023/03/15 00:13:15;;;;;;;10.38;1.60;;;2.10;99.90;;;;;;5041544;28;20052;-68
2023/03/15 00:15:52;;;;;;;5.40;1.23;;;2.10;99.90;;;;;;5037616;28;20500;-68
2023/03/15 00:18:19;;;;;;;6.57;1.45;;;2.00;99.90;;;;;;5033795;28;20045;-68
2023/03/15 00:20:46;;;;;;;9.80;2.08;;;2.00;99.90;;;;;;5041919;28;20048;-68
2023/03/15 00:23:12;;;;;;;7.03;1.30;;;2.00;99.90;;;;;;5048829;28;20045;-68
2023/03/15 00:25:38;;;;;;;9.65;1.55;;;2.10;99.90;;;;;;5046155;28;20041;-67
2023/03/15 00:28:04;;;;;;;7.90;1.60;;;2.10;99.90;;;;;;5038002;28;20053;-68
2023/03/15 00:30:30;;;;;;;6.55;1.35;;;2.10;99.90;;;;;;5038735;28;20033;-68
2023/03/15 00:32:55;;;;;;;4.47;1.58;;;2.10;99.90;;;;;;5047384;28;20086;-68
2023/03/15 00:35:22;;;;;;;6.38;1.45;;;2.20;99.90;;;;;;5038685;28;20470;-68
2023/03/15 00:37:48;;;;;;;4.35;1.27;;;2.20;99.90;;;;;;5034534;28;20043;-67
2023/03/15 00:40:14;;;;;;;7.05;1.25;;;2.30;99.90;;;;;;5031764;28;20129;-68
2023/03/15 00:42:40;;;;;;;6.60;1.35;;;2.40;99.90;;;;;;5062497;28;20038;-67
2023/03/15 00:45:06;;;;;;;10.18;1.55;;;2.40;99.90;;;;;;5029495;28;20634;-68
2023/03/15 00:47:32;;;;;;;5.13;1.30;;;2.50;99.90;;;;;;5036803;28;20045;-68
2023/03/15 00:49:57;;;;;;;9.55;1.75;;;2.40;99.90;;;;;;5036342;28;20377;-68
2023/03/15 00:52:23;;;;;;;6.70;2.05;;;2.40;99.90;;;;;;5041786;28;20056;-67
2023/03/15 00:54:53;;;;;;;4.65;1.05;;;2.40;99.90;;;;;;5036302;28;20040;-68
2023/03/15 00:57:19;;;;;;;;;;;2.30;99.90;;;;;;5037188;28;20037;-68
2023/03/15 00:59:44;;;;;;;7.15;1.58;;;2.20;99.90;;;;;;5004913;28;19985;-68
2023/03/15 01:02:10;;;;;;;4.05;1.02;;;2.20;99.90;;;;;;5040599;28;20500;-67
2023/03/15 01:04:36;;;;;;;5.65;1.13;;;2.10;99.90;;;;;;5037686;28;20076;-67
2023/03/15 01:07:03;;;;;;;5.60;1.15;;;2.00;99.90;;;;;;5045484;28;20230;-68
2023/03/15 01:09:30;;;;;;;8.05;1.30;;;2.00;99.90;;;;;;5035488;28;20158;-68
2023/03/15 01:11:57;;;;;;;3.30;0.98;;;1.90;99.90;;;;;;5047973;28;20578;-67
2023/03/15 01:14:23;;;;;;;4.68;0.95;;;1.90;99.90;;;;;;5043477;28;20072;-68
2023/03/15 01:16:49;;;;;;;8.80;1.40;;;1.80;99.90;;;;;;5039776;28;20034;-68
2023/03/15 01:19:14;;;;;;;7.50;2.15;;;1.80;99.90;;;;;;5035689;28;20058;-68
2023/03/15 01:21:40;;;;;;;6.57;0.98;;;1.80;99.90;;;;;;5042222;28;20043;-67
2023/03/15 01:24:06;;;;;;;7.00;1.10;;;1.80;99.90;;;;;;5023461;28;20121;-67
2023/03/15 01:26:32;;;;;;;8.38;1.90;;;1.70;99.90;;;;;;5049000;28;20036;-68
2023/03/15 01:28:57;;;;;;;7.78;1.83;;;1.60;99.90;;;;;;5019050;28;20044;-67
2023/03/15 01:31:26;;;;;;;5.03;1.30;;;1.60;99.90;;;;;;5044034;28;20041;-68
2023/03/15 01:33:52;;;;;;;12.13;1.60;;;1.60;99.90;;;;;;5028494;28;20151;-68
2023/03/15 01:36:18;;;;;;;6.50;1.20;;;1.60;99.90;;;;;;5037719;28;20382;-67
2023/03/15 01:38:44;;;;;;;6.22;1.38;;;1.50;99.90;;;;;;5034316;28;20041;-67
2023/03/15 01:41:12;;;;;;;6.95;1.38;;;1.50;99.90;;;;;;5038600;28;20036;-68
2023/03/15 01:43:37;;;;;;;6.00;0.95;;;1.50;99.90;;;;;;5043225;28;20048;-67
2023/03/15 01:46:18;;;;;;;4.13;1.35;;;1.50;99.90;;;;;;5014599;28;20413;-67
2023/03/15 01:49:06;;;;;;;3.83;1.00;;;1.50;99.90;;;;;;5040642;28;20044;-67
2023/03/15 01:51:38;;;;;;;7.57;1.30;;;1.50;99.90;;;;;;5037905;28;20163;-67
2023/03/15 01:54:49;;;;;;;7.00;1.10;;;1.50;99.90;;;;;;5027904;28;20056;-67
2023/03/15 01:57:29;;;;;;;5.93;1.13;;;1.50;99.90;;;;;;5020512;28;20056;-67
2023/03/15 02:00:00;;;;;;;;;;;1.50;99.90;;;;;;5039723;28;20049;-67
2023/03/15 02:02:27;;;;;;;3.35;1.00;;;1.60;99.90;;;;;;5041019;28;19920;-67
2023/03/15 02:05:08;;;;;;;8.77;1.08;;;1.60;99.90;;;;;;5039531;28;20068;-67
2023/03/15 02:07:35;;;;;;;5.95;1.02;;;1.50;99.90;;;;;;5034491;28;20067;-67
2023/03/15 02:10:13;;;;;;;2.47;0.98;;;1.50;99.90;;;;;;5035886;28;20041;-66
2023/03/15 02:12:41;;;;;;;5.22;1.10;;;1.50;99.90;;;;;;5035718;28;20045;-67
2023/03/15 02:15:08;;;;;;;5.03;1.35;;;1.60;99.90;;;;;;5026581;28;20448;-67
2023/03/15 02:17:42;;;;;;;2.70;1.20;;;1.50;99.90;;;;;;5035523;28;20041;-67
2023/03/15 02:20:50;;;;;;;3.30;1.00;;;1.50;99.90;;;;;;5035399;28;20075;-67
2023/03/15 02:23:18;;;;;;;4.07;0.93;;;1.40;99.90;;;;;;5018695;28;20060;-67
2023/03/15 02:26:18;;;;;;;6.68;1.20;;;1.40;99.90;;;;;;5040656;28;20037;-67
2023/03/15 02:28:44;;;;;;;8.52;1.10;;;1.30;99.90;;;;;;5043072;28;20124;-68
2023/03/15 02:31:10;;;;;;;5.55;1.30;;;1.20;99.90;;;;;;5050531;28;20091;-67
2023/03/15 02:33:47;;;;;;;6.25;1.60;;;1.20;99.90;;;;;;5049135;28;20037;-67
2023/03/15 02:36:20;;;;;;;11.10;1.10;;;1.20;99.90;;;;;;5049988;28;20045;-67
2023/03/15 02:38:47;;;;;;;7.05;1.15;;;1.20;99.90;;;;;;5023839;28;20065;-68
2023/03/15 02:41:20;;;;;;;5.15;1.48;;;1.20;99.90;;;;;;5036971;28;20700;-67
2023/03/15 02:43:48;;;;;;;10.27;1.70;;;1.20;99.90;;;;;;5049354;28;20045;-68
2023/03/15 02:46:15;;;;;;;11.07;1.38;;;1.20;99.90;;;;;;5048249;28;20044;-68
2023/03/15 02:48:42;;;;;;;12.32;1.48;;;1.20;99.90;;;;;;5045113;28;20151;-67
2023/03/15 02:51:18;;;;;;;9.95;1.17;;;1.20;99.90;;;;;;5022886;28;20188;-67
2023/03/15 02:53:44;;;;;;;10.25;2.35;;;1.20;99.90;;;;;;5031683;28;20072;-67
2023/03/15 02:56:09;;;;;;;5.60;1.30;;;1.20;99.90;;;;;;5050612;28;20095;-67
2023/03/15 02:58:35;;;;;;;5.03;1.10;;;1.10;99.90;;;;;;5048107;28;20044;-67
2023/03/15 03:01:00;;;;;;;4.43;1.30;;;1.10;99.90;;;;;;5048531;28;20057;-67
2023/03/15 03:03:26;;;;;;;6.97;2.75;;;1.10;99.90;;;;;;5046577;28;20037;-67
2023/03/15 03:05:51;;;;;;;5.53;1.15;;;1.00;99.90;;;;;;5031853;28;20120;-68
2023/03/15 03:08:17;;;;;;;9.57;1.30;;;1.00;99.90;;;;;;5046081;28;20034;-67
2023/03/15 03:10:42;;;;;;;4.53;1.27;;;1.00;99.90;;;;;;5043298;28;21077;-67
2023/03/15 03:13:08;;;;;;;10.13;1.35;;;1.00;99.90;;;;;;5046058;28;20146;-67
2023/03/15 03:15:33;;;;;;;8.77;1.20;;;1.00;99.90;;;;;;5045484;28;20072;-67
2023/03/15 03:17:59;;;;;;;4.95;0.95;;;1.00;99.90;;;;;;5040622;28;20059;-67
2023/03/15 03:20:26;;;;;;;7.70;1.25;;;1.00;99.90;;;;;;5053788;28;20067;-67
2023/03/15 03:22:54;;;;;;;8.80;1.35;;;1.00;99.90;;;;;;5050799;28;20040;-67
2023/03/15 03:25:20;;;;;;;8.98;1.60;;;1.00;99.90;;;;;;5019358;28;20464;-67
2023/03/15 03:27:46;;;;;;;6.32;1.25;;;1.00;99.90;;;;;;5042810;28;20072;-67
2023/03/15 03:30:13;;;;;;;4.00;1.23;;;1.00;99.90;;;;;;5051205;28;20041;-67
2023/03/15 03:32:40;;;;;;;3.00;1.05;;;0.90;99.90;;;;;;5043046;28;20045;-67
2023/03/15 03:35:06;;;;;;;4.93;1.25;;;0.90;99.90;;;;;;5025832;28;20450;-67
2023/03/15 03:37:34;;;;;;;7.30;0.80;;;0.90;99.90;;;;;;5035993;28;20382;-67
2023/03/15 03:40:01;;;;;;;2.58;1.00;;;0.90;99.90;;;;;;5030031;28;21977;-67
2023/03/15 03:42:26;;;;;;;7.60;1.40;;;0.80;99.90;;;;;;5041408;28;20528;-67
2023/03/15 03:44:53;;;;;;;8.30;1.13;;;0.80;99.90;;;;;;5013274;28;20033;-67
2023/03/15 03:47:19;;;;;;;6.15;1.30;;;0.80;99.90;;;;;;5035417;28;20037;-67
2023/03/15 03:49:44;;;;;;;7.60;1.20;;;0.80;99.90;;;;;;5046448;28;20044;-67
2023/03/15 03:52:10;;;;;;;7.28;1.10;;;0.70;99.90;;;;;;5031816;28;20044;-67
2023/03/15 03:54:36;;;;;;;8.75;1.10;;;0.70;99.90;;;;;;5038417;28;20060;-67
2023/03/15 03:57:01;;;;;;;8.10;1.10;;;0.60;99.90;;;;;;5043500;28;20579;-68
2023/03/15 03:59:27;;;;;;;4.32;0.80;;;0.60;99.90;;;;;;5040026;28;20117;-68
2023/03/15 04:01:52;;;;;;;8.90;1.65;;;0.60;99.90;;;;;;5032214;28;20041;-67
2023/03/15 04:04:18;;;;;;;3.42;0.95;;;0.60;99.90;;;;;;5048720;28;20037;-67
2023/03/15 04:06:44;;;;;;;6.93;1.23;;;0.60;99.90;;;;;;5042125;28;20461;-67
2023/03/15 04:09:14;;;;;;;6.10;0.95;;;0.50;99.90;;;;;;5043239;28;20040;-67
2023/03/15 04:11:41;;;;;;;8.80;0.98;;;0.50;99.90;;;;;;5044691;28;20045;-67
2023/03/15 04:14:08;;;;;;;5.70;1.50;;;0.40;99.90;;;;;;5031914;28;20519;-67
2023/03/15 04:16:34;;;;;;;7.43;0.90;;;0.50;99.90;;;;;;5045463;28;20076;-67
2023/03/15 04:19:00;;;;;;;2.28;0.85;;;0.50;99.90;;;;;;5037781;28;20493;-66
2023/03/15 04:21:30;;;;;;;5.82;1.00;;;0.40;99.90;;;;;;5019011;28;20029;-67
2023/03/15 04:23:57;;;;;;;9.82;1.40;;;0.40;99.90;;;;;;5043395;28;20424;-67
2023/03/15 04:26:25;;;;;;;7.20;2.03;;;0.40;99.90;;;;;;5051560;28;20045;-67
2023/03/15 04:28:54;;;;;;;3.70;1.10;;;0.40;99.90;;;;;;5036176;28;20037;-67
2023/03/15 04:31:20;;;;;;;4.93;1.00;;;0.30;99.90;;;;;;5043935;28;20056;-67
2023/03/15 04:33:46;;;;;;;7.22;1.30;;;0.30;99.90;;;;;;5044132;28;20415;-67
2023/03/15 04:36:17;;;;;;;4.82;1.20;;;0.20;99.90;;;;;;5038607;28;20041;-67
2023/03/15 04:38:45;;;;;;;4.75;0.90;;;0.20;99.90;;;;;;5014537;28;20045;-67
2023/03/15 04:41:12;;;;;;;5.30;1.00;;;0.20;99.90;;;;;;5042959;28;20156;-67
2023/03/15 04:43:38;;;;;;;7.70;1.75;;;0.10;99.90;;;;;;5032376;28;20047;-67
2023/03/15 04:46:04;;;;;;;6.80;0.98;;;0.10;99.90;;;;;;5042134;28;20634;-67
2023/03/15 04:48:30;;;;;;;13.18;1.50;;;0.10;99.90;;;;;;5040917;28;20046;-67
2023/03/15 04:50:55;;;;;;;8.07;1.48;;;0.10;99.90;;;;;;5033845;28;20640;-67
2023/03/15 04:53:21;;;;;;;5.43;1.48;;;0.10;99.90;;;;;;5027488;28;20114;-67
2023/03/15 04:55:46;;;;;;;6.43;1.10;;;0.10;99.90;;;;;;5037531;28;20124;-66
2023/03/15 04:58:12;;;;;;;5.13;1.10;;;0.10;99.90;;;;;;5035147;28;20076;-67
2023/03/15 05:00:37;;;;;;;13.85;1.67;;;0.10;99.90;;;;;;5032145;28;20053;-66
2023/03/15 05:03:03;;;;;;;7.40;1.00;;;0.10;99.90;;;;;;5038585;28;20037;-66
2023/03/15 05:05:32;;;;;;;4.28;0.98;;;0.00;99.90;;;;;;5035357;28;22690;-66
2023/03/15 05:07:57;;;;;;;7.00;1.35;;;0.00;99.90;;;;;;5041660;28;20043;-66
2023/03/15 05:10:24;;;;;;;4.38;1.02;;;0.00;99.90;;;;;;5034755;28;20036;-66
2023/03/15 05:12:50;;;;;;;6.47;2.20;;;-0.10;99.90;;;;;;5038819;28;20040;-67
2023/03/15 05:15:16;;;;;;;5.80;1.52;;;0.00;99.90;;;;;;5031889;28;20037;-67
2023/03/15 05:17:45;;;;;;;6.03;1.60;;;-0.10;99.90;;;;;;5033501;28;20531;-66
2023/03/15 05:20:12;;;;;;;6.75;1.27;;;-0.10;99.90;;;;;;5030624;28;20041;-67
2023/03/15 05:22:39;;;;;;;5.57;1.02;;;-0.10;99.90;;;;;;5042355;28;20037;-67
2023/03/15 05:25:06;;;;;;;4.72;1.08;;;-0.20;99.90;;;;;;5044277;28;20457;-67
2023/03/15 05:27:33;;;;;;;4.68;0.80;;;-0.20;99.90;;;;;;5040965;28;20045;-66
2023/03/15 05:30:03;;;;;;;5.00;1.27;;;-0.10;99.90;;;;;;5012570;28;20354;-67
2023/03/15 05:32:33;;;;;;;5.95;1.55;;;0.00;99.90;;;;;;5041704;28;20053;-67
2023/03/15 05:35:02;;;;;;;3.00;0.93;;;0.00;99.90;;;;;;5033168;28;20048;-67
2023/03/15 05:37:28;;;;;;;6.93;1.93;;;0.00;99.90;;;;;;5029143;28;20041;-67
2023/03/15 05:39:54;;;;;;;6.97;1.30;;;0.00;99.90;;;;;;5038658;28;20064;-67
2023/03/15 05:42:24;;;;;;;4.97;0.93;;;0.10;99.90;;;;;;5040381;28;20111;-67
2023/03/15 05:44:51;;;;;;;4.43;1.10;;;0.10;99.90;;;;;;5038221;28;20512;-67
2023/03/15 05:47:17;;;;;;;7.70;1.30;;;0.10;99.90;;;;;;5044426;28;20598;-67
2023/03/15 05:49:42;;;;;;;4.38;1.00;;;0.10;99.90;;;;;;5041829;28;20131;-67
2023/03/15 05:52:08;;;;;;;5.78;1.17;;;0.20;99.90;;;;;;5036481;28;20041;-67
2023/03/15 05:54:33;;;;;;;9.07;1.40;;;0.20;99.90;;;;;;5035988;28;20056;-67
2023/03/15 05:56:59;;;;;;;6.13;1.20;;;0.30;99.90;;;;;;5037842;28;20112;-67
2023/03/15 05:59:25;;;;;;;4.68;1.10;;;0.30;99.90;;;;;;5032938;28;20040;-67
2023/03/15 06:01:50;;;;;;;5.65;1.48;;;0.30;99.90;;;;;;5034007;28;20045;-68
2023/03/15 06:04:16;;;;;;;10.52;3.05;;;0.30;99.90;;;;;;5035465;28;20128;-67
2023/03/15 06:06:41;;;;;;;5.47;1.10;;;0.40;99.90;;;;;;5033773;28;20412;-67
2023/03/15 06:09:07;;;;;;;8.95;1.40;;;0.30;99.90;;;;;;5036430;28;20098;-67
2023/03/15 06:11:32;;;;;;;6.95;1.23;;;0.30;99.90;;;;;;5038696;28;20086;-68
2023/03/15 06:13:58;;;;;;;8.05;1.00;;;0.40;99.90;;;;;;5023604;28;20037;-67
2023/03/15 06:16:23;;;;;;;4.20;1.45;;;0.40;99.90;;;;;;5032268;28;20547;-67
2023/03/15 06:18:49;;;;;;;6.78;2.00;;;0.40;99.90;;;;;;5034484;28;20060;-68
2023/03/15 06:21:15;;;;;;;9.70;2.00;;;0.40;99.90;;;;;;5042439;28;20041;-67
2023/03/15 06:23:41;;;;;;;2.92;1.20;;;0.40;99.90;;;;;;5040242;28;20535;-67
2023/03/15 06:26:06;;;;;;;3.75;1.25;;;0.40;99.90;;;;;;5033561;28;20041;-67
2023/03/15 06:28:32;;;;;;;6.72;1.20;;;0.40;99.90;;;;;;5041093;28;20045;-67
2023/03/15 06:30:57;;;;;;;6.03;1.48;;;0.40;99.90;;;;;;5044006;28;20072;-67
2023/03/15 06:33:23;;;;;;;5.20;1.13;;;0.40;99.90;;;;;;5035466;28;20127;-67
2023/03/15 06:35:49;;;;;;;6.95;2.33;;;0.40;99.90;;;;;;5034422;28;20091;-67
2023/03/15 06:38:14;;;;;;;5.43;1.15;;;0.50;99.90;;;;;;5036854;28;20041;-67
2023/03/15 06:40:40;;;;;;;3.45;0.90;;;0.50;99.90;;;;;;5042124;28;20037;-67
2023/03/15 06:43:06;;;;;;;5.28;1.40;;;0.60;99.90;;;;;;5028196;28;20037;-67
2023/03/15 06:45:32;;;;;;;2.25;1.13;;;0.60;99.90;;;;;;5036661;28;20242;-67
2023/03/15 06:47:58;;;;;;;5.10;1.10;;;0.70;99.90;;;;;;5030637;28;20567;-68
2023/03/15 06:50:24;;;;;;;6.13;1.08;;;0.80;99.90;;;;;;5046800;28;20116;-68
2023/03/15 06:52:49;;;;;;;4.65;1.08;;;0.90;99.90;;;;;;5049638;28;20376;-68
2023/03/15 06:55:17;;;;;;;7.82;1.45;;;1.20;99.90;;;;;;5037601;28;20110;-68
2023/03/15 06:57:43;;;;;;;6.32;1.25;;;1.30;99.90;;;;;;5038333;28;20041;-68
2023/03/15 07:00:10;;;;;;;4.93;1.40;;;1.50;99.90;;;;;;5026183;28;20143;-68
2023/03/15 07:02:36;;;;;;;8.45;1.45;;;1.70;99.90;;;;;;5026465;28;20067;-68
2023/03/15 07:05:06;;;;;;;5.13;1.08;;;2.00;99.90;;;;;;5034771;28;20037;-69
2023/03/15 07:07:31;;;;;;;3.75;1.17;;;2.30;99.90;;;;;;5044431;28;20091;-69
2023/03/15 07:09:57;;;;;;;6.50;1.02;;;2.60;99.90;;;;;;5050517;28;20366;-68
2023/03/15 07:12:22;;;;;;;5.75;0.93;;;2.80;99.90;;;;;;5048253;28;20064;-69
2023/03/15 07:14:48;;;;;;;5.60;1.35;;;3.10;99.90;;;;;;5047313;28;20099;-69
2023/03/15 07:17:14;;;;;;;3.40;0.95;;;3.30;99.90;;;;;;5049011;28;20760;-70
2023/03/15 07:19:40;;;;;;;5.38;1.05;;;3.50;99.90;;;;;;5018983;28;20186;-70
2023/03/15 07:22:05;;;;;;;8.20;1.30;;;3.80;99.90;;;;;;5043746;28;20046;-69
2023/03/15 07:24:31;;;;;;;5.97;1.13;;;4.10;99.90;;;;;;5036474;28;20045;-70
2023/03/15 07:26:56;;;;;;;5.40;1.42;;;4.40;99.90;;;;;;5041311;28;20041;-69
2023/03/15 07:29:25;;;;;;;5.50;1.35;;;4.50;99.90;;;;;;5039777;28;20041;-69
2023/03/15 07:31:53;;;;;;;4.10;0.90;;;4.60;99.90;;;;;;5035480;28;20047;-69
2023/03/15 07:34:18;;;;;;;5.22;0.95;;;5.00;99.90;;;;;;5047328;28;20110;-69
2023/03/15 07:36:44;;;;;;;5.35;1.17;;;5.20;99.90;;;;;;5059660;28;20045;-69
2023/03/15 07:39:10;;;;;;;5.25;1.00;;;5.40;99.90;;;;;;5042625;28;20507;-69
2023/03/15 07:41:36;;;;;;;6.95;1.20;;;5.70;99.90;;;;;;5030846;28;20037;-70
2023/03/15 07:44:01;;;;;;;4.32;0.90;;;5.90;99.90;;;;;;5041470;28;20068;-69
2023/03/15 07:46:27;;;;;;;3.30;0.82;;;6.00;99.90;;;;;;5038663;28;20042;-70
2023/03/15 07:48:52;;;;;;;3.50;0.85;;;6.20;99.90;;;;;;5047127;28;20500;-69
2023/03/15 07:51:18;;;;;;;5.10;1.30;;;6.40;99.90;;;;;;5040047;28;20045;-69
2023/03/15 07:53:43;;;;;;;4.38;1.00;;;6.50;99.90;;;;;;5033479;28;20103;-70
2023/03/15 07:56:09;;;;;;;3.00;0.98;;;6.50;99.90;;;;;;5035918;28;20048;-68
2023/03/15 07:58:35;;;;;;;4.63;1.00;;;6.50;99.90;;;;;;5041407;28;20124;-70
2023/03/15 08:01:00;;;;;;;5.32;1.00;;;6.20;99.90;;;;;;5052329;28;20144;-70
2023/03/15 08:03:26;;;;;;;5.85;1.52;;;6.00;99.90;;;;;;5045695;28;20461;-68
2023/03/15 08:05:52;;;;;;;7.07;1.25;;;5.80;99.90;;;;;;5044922;28;20057;-69
2023/03/15 08:08:18;;;;;;;4.90;1.10;;;5.70;99.90;;;;;;5026767;28;20054;-68
2023/03/15 08:10:44;;;;;;;5.57;1.20;;;5.80;99.90;;;;;;5040593;28;20067;-67
2023/03/15 08:13:10;;;;;;;6.97;1.23;;;5.50;99.90;;;;;;5047998;28;20041;-68
2023/03/15 08:15:36;;;;;;;3.88;1.20;;;5.60;99.90;;;;;;5041714;28;20492;-68
2023/03/15 08:18:02;;;;;;;5.28;1.02;;;5.50;99.90;;;;;;5048423;28;20040;-69
2023/03/15 08:20:28;;;;;;;6.43;1.25;;;5.60;99.90;;;;;;5031337;28;20034;-68
2023/03/15 08:22:54;;;;;;;5.00;1.13;;;5.70;99.90;;;;;;5041998;28;20464;-69
2023/03/15 08:25:22;;;;;;;4.72;1.23;;;5.80;99.90;;;;;;5037379;28;20068;-68
2023/03/15 08:27:49;;;;;;;6.07;1.63;;;5.80;99.90;;;;;;5050396;28;20041;-68
2023/03/15 08:30:16;;;;;;;3.95;1.67;;;5.90;99.90;;;;;;5030868;28;20033;-67
2023/03/15 08:32:44;;;;;;;8.00;1.35;;;6.00;99.90;;;;;;5049779;28;20045;-68
2023/03/15 08:35:11;;;;;;;4.95;1.23;;;6.10;99.90;;;;;;5043469;28;20527;-68
2023/03/15 08:37:38;;;;;;;6.18;1.15;;;6.00;99.90;;;;;;5040059;28;20132;-66
2023/03/15 08:40:08;;;;;;;4.40;1.15;;;6.00;99.90;;;;;;5037185;28;20445;-68
2023/03/15 08:42:34;;;;;;;2.72;1.10;;;6.10;99.90;;;;;;5049252;28;20060;-67
2023/03/15 08:45:00;;;;;;;7.40;1.23;;;6.10;99.90;;;;;;5033171;28;20108;-68
2023/03/15 08:47:26;;;;;;;6.43;1.13;;;6.20;99.90;;;;;;5043448;28;20033;-68
2023/03/15 08:49:52;;;;;;;5.38;1.48;;;6.30;99.90;;;;;;5037460;28;20038;-68
2023/03/15 08:52:21;;;;;;;7.80;1.17;;;6.30;99.90;;;;;;5030443;28;20489;-67
2023/03/15 08:54:47;;;;;;;8.00;1.10;;;6.30;99.90;;;;;;5030709;28;20030;-69
2023/03/15 08:57:13;;;;;;;8.68;1.40;;;6.30;99.90;;;;;;5037661;28;20396;-68
2023/03/15 08:59:39;;;;;;;6.00;1.42;;;6.40;99.90;;;;;;5038751;28;20091;-69
2023/03/15 09:02:05;;;;;;;7.95;1.17;;;6.50;99.90;;;;;;5036578;28;20033;-68
2023/03/15 09:04:32;;;;;;;10.05;1.65;;;6.60;99.90;;;;;;5040627;28;20427;-68
2023/03/15 09:06:58;;;;;;;6.82;1.40;;;6.80;99.90;;;;;;5034185;28;20588;-68
2023/03/15 09:09:24;;;;;;;9.68;1.65;;;6.80;99.90;;;;;;5042519;28;20511;-69
2023/03/15 09:11:50;;;;;;;14.70;2.17;;;6.90;99.90;;;;;;5040068;28;20045;-69
2023/03/15 09:14:15;;;;;;;9.43;1.58;;;6.70;99.90;;;;;;5022268;28;20056;-68
2023/03/15 09:16:41;;;;;;;5.50;1.33;;;6.80;99.90;;;;;;5040731;28;20496;-67
2023/03/15 09:19:06;;;;;;;7.78;1.40;;;6.90;99.90;;;;;;5051601;28;20095;-66
2023/03/15 09:21:32;;;;;;;7.57;1.92;;;7.00;99.90;;;;;;5051546;28;20049;-68
2023/03/15 09:23:58;;;;;;;7.18;1.33;;;7.00;99.90;;;;;;5049828;28;20071;-70
2023/03/15 09:26:23;;;;;;;6.13;1.23;;;7.20;99.90;;;;;;5051049;28;20056;-68
2023/03/15 09:28:49;;;;;;;4.07;1.38;;;7.10;99.90;;;;;;5048559;28;20036;-68
2023/03/15 09:31:14;;;;;;;6.22;1.20;;;7.20;99.90;;;;;;5031307;28;20121;-68
2023/03/15 09:33:40;;;;;;;6.13;1.35;;;7.20;99.90;;;;;;5047636;28;20099;-69
2023/03/15 09:36:06;;;;;;;7.10;1.27;;;7.20;99.90;;;;;;5042121;28;20037;-67
2023/03/15 09:38:32;;;;;;;5.53;1.50;;;7.30;99.90;;;;;;5044020;28;20107;-68
2023/03/15 09:40:58;;;;;;;7.97;1.10;;;7.40;99.90;;;;;;5040716;28;20536;-67
2023/03/15 09:44:18;;;;;;;5.43;1.08;;;7.40;99.90;;;;;;5027304;28;20417;-67
2023/03/15 09:47:26;;;;;;;8.85;1.15;;;7.50;99.90;;;;;;4979145;28;20050;-67
2023/03/15 09:50:15;;;;;;;4.97;1.17;;;7.60;99.90;;;;;;5009327;28;20138;-68
2023/03/15 09:53:10;;;;;;;6.55;0.90;;;7.80;99.90;;;;;;5038709;28;20045;-67
2023/03/15 09:55:36;;;;;;;4.78;0.93;;;7.80;99.90;;;;;;5029464;28;20477;-68
2023/03/15 09:58:09;;;;;;;5.28;1.80;;;7.80;99.90;;;;;;5038193;28;20143;-68
2023/03/15 10:00:48;;;;;;;5.00;1.27;;;7.80;99.90;;;;;;5045494;28;20465;-67
2023/03/15 10:03:36;;;;;;;4.63;1.08;;;8.00;99.90;;;;;;5029185;28;20072;-68
2023/03/15 10:06:10;;;;;;;4.05;1.10;;;8.10;99.90;;;;;;5034406;28;20051;-68
2023/03/15 10:08:35;;;;;;;7.15;1.20;;;8.20;99.90;;;;;;5029358;28;20038;-67
2023/03/15 10:11:20;;;;;;;3.25;1.13;;;8.30;99.90;;;;;;5035932;28;20042;-69
2023/03/15 10:14:13;;;;;;;3.47;0.80;;;8.40;99.90;;;;;;5040378;28;20037;-68
2023/03/15 10:16:45;;;;;;;5.75;1.35;;;8.40;99.90;;;;;;5034082;28;20158;-68
2023/03/15 10:19:29;;;;;;;5.32;1.00;;;8.60;99.90;;;;;;5025762;28;20045;-67
2023/03/15 10:22:26;;;;;;;2.75;0.95;;;8.50;99.90;;;;;;5033337;28;20053;-68
2023/03/15 10:25:10;;;;;;;6.53;1.27;;;8.40;99.90;;;;;;5012312;28;20064;-67
2023/03/15 10:27:48;;;;;;;9.18;1.33;;;8.20;99.90;;;;;;5040612;28;20102;-67
2023/03/15 10:30:20;;;;;;;3.75;1.00;;;8.30;99.90;;;;;;5044061;28;20063;-66
2023/03/15 10:33:08;;;;;;;7.00;1.20;;;8.40;99.90;;;;;;5040325;28;20102;-68
2023/03/15 10:35:34;;;;;;;6.55;1.10;;;8.30;99.90;;;;;;5011825;28;20107;-68
2023/03/15 10:38:01;;;;;;;4.75;1.00;;;8.30;99.90;;;;;;5045192;28;20116;-65
2023/03/15 10:40:45;;;;;;;4.00;0.90;;;8.20;99.90;;;;;;5045485;28;20477;-68
2023/03/15 10:43:23;;;;;;;3.10;1.02;;;8.40;99.90;;;;;;5036306;28;20041;-68
2023/03/15 10:46:00;;;;;;;7.07;1.25;;;8.40;99.90;;;;;;5048000;28;20037;-67
2023/03/15 10:48:34;;;;;;;7.35;1.60;;;8.40;99.90;;;;;;5051237;28;20048;-67
2023/03/15 10:51:15;;;;;;;3.70;0.88;;;8.40;99.90;;;;;;5050021;28;20055;-68
2023/03/15 10:53:56;;;;;;;3.38;0.80;;;8.50;99.90;;;;;;5053341;28;20115;-68
2023/03/15 10:56:27;;;;;;;8.50;0.98;;;8.40;99.90;;;;;;5040044;28;20045;-67
2023/03/15 10:58:54;;;;;;;7.90;1.00;;;8.60;86.10;;;;;;5046210;28;20037;-67
2023/03/15 11:01:33;;;;;;;3.80;0.90;;;8.80;99.90;;;;;;5038798;28;20103;-67
2023/03/15 11:04:17;;;;;;;4.70;0.90;;;9.10;99.90;;;;;;5039056;28;20045;-67
2023/03/15 11:06:55;;;;;;;7.72;1.35;;;9.30;99.90;;;;;;5050680;28;20041;-65
2023/03/15 11:09:22;;;;;;;6.55;1.00;;;9.50;99.90;;;;;;5048026;28;20120;-67
2023/03/15 11:11:51;;;;;;;4.80;1.00;;;9.50;99.90;;;;;;5051720;28;20047;-66
2023/03/15 11:14:17;;;;;;;3.05;1.00;;;9.30;99.90;;;;;;5049060;28;20045;-67
2023/03/15 11:16:51;;;;;;;4.15;0.98;;;9.10;99.90;;;;;;5046036;28;20049;-67
2023/03/15 11:19:20;;;;;;;7.68;1.00;;;9.00;95.40;;;;;;5043846;28;20778;-66
2023/03/15 11:21:48;;;;;;;7.63;1.17;;;9.10;99.90;;;;;;5037333;28;20047;-67
2023/03/15 11:24:26;;;;;;;6.78;1.45;;;9.20;99.90;;;;;;5050711;28;20044;-66
2023/03/15 11:26:54;;;;;;;6.22;1.20;;;9.30;99.90;;;;;;5045907;28;20480;-67
2023/03/15 11:29:36;;;;;;;4.55;1.30;;;9.50;99.90;;;;;;5049509;28;20416;-67
2023/03/15 11:32:24;;;;;;;7.53;1.60;;;9.80;99.90;;;;;;5049734;28;20373;-67
2023/03/15 11:35:12;;;;;;;4.22;1.00;;;9.70;99.90;;;;;;5033807;28;20378;-67
2023/03/15 11:37:38;;;;;;;6.22;0.90;;;9.80;99.90;;;;;;5041425;28;20053;-68
2023/03/15 11:40:19;;;;;;;6.03;1.50;;;9.70;99.90;;;;;;5045028;28;20091;-67
2023/03/15 11:42:56;;;;;;;7.07;1.38;;;9.40;99.90;;;;;;5035961;28;20048;-68
2023/03/15 11:45:47;;;;;;;5.57;1.65;;;9.50;99.90;;;;;;5027562;28;20037;-69
2023/03/15 11:48:33;;;;;;;5.47;1.55;;;9.60;74.40;;;;;;5046775;28;20044;-68
2023/03/15 11:51:00;;;;;;;3.92;1.20;;;9.70;97.00;;;;;;5052106;28;20040;-67
2023/03/15 11:53:46;;;;;;;4.15;1.00;;;9.80;99.90;;;;;;5046984;28;20041;-67
2023/03/15 11:56:52;;;;;;;3.88;0.93;;;10.10;99.90;;;;;;5037741;28;20382;-67
2023/03/15 11:59:31;;;;;;;5.53;1.00;;;10.10;73.40;;;;;;5021346;28;20049;-68
2023/03/15 12:02:04;;;;;;;5.28;1.42;;;10.20;99.80;;;;;;5036543;28;20350;-68
2023/03/15 12:04:33;;;;;;;4.50;1.25;;;10.20;96.80;;;;;;5033697;28;20450;-69
2023/03/15 12:07:02;;;;;;;4.82;1.02;;;10.30;99.90;;;;;;5033103;28;20049;-67
2023/03/15 12:09:30;;;;;;;4.63;0.90;;;10.30;99.90;;;;;;5038789;28;20037;-67
2023/03/15 12:12:05;;;;;;;5.22;1.00;;;10.40;97.20;;;;;;5045104;28;20190;-67
2023/03/15 12:14:35;;;;;;;2.45;0.77;;;10.50;95.70;;;;;;5031006;28;20056;-67
2023/03/15 12:17:23;;;;;;;5.20;1.20;;;10.50;99.90;;;;;;5043505;28;20049;-69
2023/03/15 12:20:18;;;;;;;3.30;0.80;;;10.30;77.80;;;;;;5036846;28;20063;-69
2023/03/15 12:23:18;;;;;;;6.38;1.25;;;10.20;71.60;;;;;;5044110;28;20055;-68
2023/03/15 12:26:06;;;;;;;4.45;0.93;;;10.00;61.40;;;;;;5032198;28;20120;-69
2023/03/15 12:28:50;;;;;;;6.68;1.17;;;9.80;62.70;;;;;;5027725;28;20048;-68
2023/03/15 12:31:16;;;;;;;4.38;1.08;;;9.80;94.80;;;;;;5051511;28;20043;-68
2023/03/15 12:33:49;;;;;;;2.67;0.85;;;9.70;93.60;;;;;;5049142;28;20029;-69
2023/03/15 12:36:19;;;;;;;3.20;0.95;;;9.90;81.00;;;;;;5048905;28;20080;-69
2023/03/15 12:39:13;;;;;;;4.35;0.98;;;9.80;78.60;;;;;;5050864;28;20480;-68
2023/03/15 12:41:42;;;;;;;4.57;1.10;;;9.90;66.30;;;;;;5029460;28;20060;-68
2023/03/15 12:44:22;;;;;;;4.60;1.05;;;9.80;91.10;;;;;;5026239;28;20037;-68
2023/03/15 12:46:48;;;;;;;;;;;9.90;68.80;;;;;;5043444;28;20103;-69
2023/03/15 12:49:27;;;;;;;2.20;0.98;;;9.90;53.10;;;;;;5050804;28;19917;-68
2023/03/15 12:52:00;;;;;;;5.33;0.93;;;10.20;71.10;;;;;;5050326;28;20029;-68
2023/03/15 12:54:48;;;;;;;3.75;1.05;;;10.40;74.30;;;;;;5028850;28;20454;-66
2023/03/15 12:57:19;;;;;;;7.00;1.40;;;10.20;56.00;;;;;;5036933;28;20041;-68
2023/03/15 12:59:54;;;;;;;4.07;0.80;;;10.30;59.80;;;;;;5041151;28;20167;-68
2023/03/15 13:02:28;;;;;;;6.40;1.15;;;10.20;59.70;;;;;;5033812;28;20128;-68
2023/03/15 13:05:16;;;;;;;3.25;0.75;;;10.30;90.30;;;;;;5043162;28;20053;-69
2023/03/15 13:08:18;;;;;;;3.47;0.73;;;10.60;63.30;;;;;;5044513;28;20063;-68
2023/03/15 13:10:50;;;;;;;4.05;1.10;;;10.40;51.90;;;;;;5044080;28;20036;-69